Terminal Aerodrome Forecast
Issued by NWS

Home | Current Version | Previous Version | Graphics & Text | Print | Product List | Glossary On
Versions: 1 2 3 4 5 6 7 8 9 10 11 12 13 14 15 16 17
885
FTUS43 KLSX 271731
TAFSUS
TAF
KSUS 271731Z 2718/2818 VRB04KT P6SM SCT040 BKN150
     FM272000 VRB04KT P6SM VCTS BKN040CB
     FM280100 VRB03KT P6SM SCT100
      TEMPO 2810/2812 5SM BR
     FM281500 28005KT P6SM SCT040=

USA.gov is the U.S. government's official web portal to all federal, state and local government web resources and services.